Time;durP1;ratioP1;P1;durP2;ratioP2;P2;SDS_P1;SDS_P2;PMS_P1;PMS_P2;Temp;Humidity;BMP_temperature;BMP_pressure;BME280_temperature;BME280_humidity;BME280_pressure;Samples;Min_cycle;Max_cycle;Signal;HPM_P1;HPM_P2
2021/12/06 00:01:31;;;;;;;22.20;11.95;;;;;;;-142.18;100.00;63825.25;5097251;28;20188;-72
2021/12/06 00:04:15;;;;;;;22.67;12.73;;;;;;;-142.18;100.00;63825.25;5079078;28;20105;-73
2021/12/06 00:06:45;;;;;;;26.08;14.05;;;;;;;-142.18;100.00;63825.25;5097078;28;20131;-73
2021/12/06 00:09:14;;;;;;;27.00;14.20;;;;;;;-142.18;100.00;63825.25;5078582;28;20072;-73
2021/12/06 00:11:41;;;;;;;28.25;16.38;;;;;;;-142.18;100.00;63825.25;5079433;28;20095;-73
2021/12/06 00:14:08;;;;;;;30.67;14.93;;;;;;;-142.18;100.00;63825.25;5095821;28;20079;-73
2021/12/06 00:16:35;;;;;;;31.45;16.63;;;;;;;-142.18;100.00;63825.25;5096261;28;20612;-73
2021/12/06 00:19:04;;;;;;;35.08;17.35;;;;;;;-142.18;100.00;63825.25;5077832;28;20398;-72
2021/12/06 00:21:30;;;;;;;33.00;18.20;;;;;;;-142.18;100.00;63825.25;5095707;28;20202;-72
2021/12/06 00:23:57;;;;;;;28.75;16.35;;;;;;;-142.18;100.00;63825.25;5096703;28;20056;-72
2021/12/06 00:26:23;;;;;;;29.38;16.40;;;;;;;-142.18;100.00;63825.25;5096495;28;20061;-72
2021/12/06 00:28:56;;;;;;;29.35;17.13;;;;;;;-142.18;100.00;63825.25;5078692;28;20091;-72
2021/12/06 00:31:31;;;;;;;30.25;17.30;;;;;;;-142.18;100.00;63825.25;5079350;28;20092;-72
2021/12/06 00:34:02;;;;;;;32.72;17.02;;;;;;;-142.18;100.00;63825.25;5096562;28;20063;-72
2021/12/06 00:36:32;;;;;;;30.02;16.70;;;;;;;-142.18;100.00;63825.25;5095822;28;20057;-73
2021/12/06 00:39:00;;;;;;;32.60;16.60;;;;;;;-142.18;100.00;63825.25;5079738;28;20405;-73
2021/12/06 00:41:26;;;;;;;34.08;16.33;;;;;;;-142.18;100.00;63825.25;5096551;28;20158;-72
2021/12/06 00:43:54;;;;;;;29.88;15.63;;;;;;;-142.18;100.00;63825.25;5097368;28;20465;-73
2021/12/06 00:46:21;;;;;;;29.58;16.05;;;;;;;-142.18;100.00;63825.25;5097417;28;20139;-73
2021/12/06 00:48:48;;;;;;;30.38;15.57;;;;;;;-142.18;100.00;63825.25;5078860;28;20104;-75
2021/12/06 00:51:15;;;;;;;27.45;15.15;;;;;;;-142.18;100.00;63825.25;5096682;28;20163;-72
2021/12/06 00:53:43;;;;;;;32.83;15.75;;;;;;;-142.18;100.00;63825.25;5095406;28;20452;-73
2021/12/06 00:56:09;;;;;;;36.50;18.88;;;;;;;-142.18;100.00;63825.25;5077134;28;20076;-73
2021/12/06 00:58:36;;;;;;;55.55;23.05;;;;;;;-142.18;100.00;63825.25;5094153;28;20210;-73
2021/12/06 01:01:04;;;;;;;45.70;21.63;;;;;;;-142.18;100.00;63825.25;5076388;28;20151;-72
2021/12/06 01:03:36;;;;;;;32.78;17.83;;;;;;;-142.18;100.00;63825.25;5076384;28;20083;-72
2021/12/06 01:06:04;;;;;;;33.58;16.63;;;;;;;-142.18;100.00;63825.25;5094733;28;20060;-73
2021/12/06 01:08:30;;;;;;;33.55;17.42;;;;;;;-142.18;100.00;63825.25;5093685;28;20056;-73
2021/12/06 01:10:57;;;;;;;31.40;16.90;;;;;;;-142.18;100.00;63825.25;5094703;28;20112;-73
2021/12/06 01:13:26;;;;;;;32.67;17.30;;;;;;;-142.18;100.00;63825.25;5075573;28;20466;-73
2021/12/06 01:15:54;;;;;;;35.08;17.92;;;;;;;-142.18;100.00;63825.25;5077364;28;20079;-73
2021/12/06 01:18:22;;;;;;;34.53;18.40;;;;;;;-142.18;100.00;63825.25;5094694;28;20064;-73
2021/12/06 01:20:56;;;;;;;31.00;16.95;;;;;;;-142.18;100.00;63825.25;5093979;28;20284;-73
2021/12/06 01:23:27;;;;;;;24.75;11.80;;;;;;;-142.18;100.00;63825.25;5094606;28;20056;-72
2021/12/06 01:31:39;;;;;;;15.35;9.85;;;;;;;-142.18;100.00;63825.25;5094390;28;20106;-73
2021/12/06 01:39:09;;;;;;;14.95;8.98;;;;;;;-142.18;100.00;63825.25;5078122;28;20455;-73
2021/12/06 01:39:44;;;;;;;13.85;8.00;;;;;;;-142.18;100.00;63825.25;5097376;28;20144;-73
2021/12/06 01:42:11;;;;;;;13.18;7.72;;;;;;;-142.18;100.00;63825.25;5076849;28;20091;-73
2021/12/06 01:44:45;;;;;;;17.45;7.80;;;;;;;-142.18;100.00;63825.25;5077822;28;20092;-73
2021/12/06 01:47:13;;;;;;;16.25;8.63;;;;;;;-142.18;100.00;63825.25;5095380;28;20507;-73
2021/12/06 01:49:48;;;;;;;12.68;7.93;;;;;;;-142.18;100.00;63825.25;5096231;28;20127;-73
2021/12/06 01:52:22;;;;;;;16.40;8.35;;;;;;;-142.18;100.00;63825.25;5095305;28;20056;-73
2021/12/06 01:54:49;;;;;;;14.77;8.75;;;;;;;-142.18;100.00;63825.25;5095040;28;20056;-73
2021/12/06 01:57:17;;;;;;;11.27;7.88;;;;;;;-142.18;100.00;63825.25;5095035;28;20108;-73
2021/12/06 01:59:44;;;;;;;11.88;7.63;;;;;;;-142.18;100.00;63825.25;5095647;28;20061;-73
2021/12/06 02:02:11;;;;;;;12.90;7.78;;;;;;;-142.18;100.00;63825.25;5095351;28;20155;-73
2021/12/06 02:04:39;;;;;;;15.10;8.30;;;;;;;-142.18;100.00;63825.25;5094796;28;20524;-73
2021/12/06 02:07:09;;;;;;;16.88;9.60;;;;;;;-142.18;100.00;63825.25;5093898;28;20385;-73
2021/12/06 02:09:35;;;;;;;12.52;7.63;;;;;;;-142.18;100.00;63825.25;5076576;28;20145;-73
2021/12/06 02:12:04;;;;;;;15.20;7.65;;;;;;;-142.18;100.00;63825.25;5076634;28;20202;-73
2021/12/06 02:17:21;;;;;;;13.40;8.68;;;;;;;-142.18;100.00;63825.25;5094118;28;20155;-73
2021/12/06 02:19:54;;;;;;;16.33;9.35;;;;;;;-142.18;100.00;63825.25;5095434;28;20148;-73
2021/12/06 02:22:24;;;;;;;17.65;10.35;;;;;;;-142.18;100.00;63825.25;5078215;28;20519;-73
2021/12/06 02:24:53;;;;;;;17.50;10.35;;;;;;;-142.18;100.00;63825.25;5078430;28;20040;-73
2021/12/06 02:27:22;;;;;;;20.95;11.20;;;;;;;-142.18;100.00;63825.25;5096317;28;20059;-73
2021/12/06 02:29:51;;;;;;;18.63;11.15;;;;;;;-142.18;100.00;63825.25;5095710;28;20518;-73
2021/12/06 02:32:20;;;;;;;14.95;9.30;;;;;;;-142.18;100.00;63825.25;5077969;28;20103;-73
2021/12/06 02:34:49;;;;;;;16.92;10.05;;;;;;;-142.18;100.00;63825.25;5095859;28;20099;-73
2021/12/06 02:37:19;;;;;;;16.90;9.93;;;;;;;-142.18;100.00;63825.25;5076490;28;20060;-73
2021/12/06 02:39:46;;;;;;;14.60;9.13;;;;;;;-142.18;100.00;63825.25;5078885;28;20139;-73
2021/12/06 02:42:15;;;;;;;18.75;10.18;;;;;;;-142.18;100.00;63825.25;5094970;28;20114;-72
2021/12/06 02:44:44;;;;;;;16.63;10.10;;;;;;;-142.18;100.00;63825.25;5077696;28;20056;-72
2021/12/06 02:47:12;;;;;;;14.52;8.90;;;;;;;-142.18;100.00;63825.25;5095072;28;20072;-73
2021/12/06 02:49:39;;;;;;;18.77;9.07;;;;;;;-142.18;100.00;63825.25;5094642;28;20076;-73
2021/12/06 02:52:07;;;;;;;15.27;8.88;;;;;;;-142.18;100.00;63825.25;5095174;28;20458;-73
2021/12/06 02:54:35;;;;;;;17.98;9.65;;;;;;;-142.18;100.00;63825.25;5094198;28;20114;-73
2021/12/06 02:59:42;;;;;;;16.70;9.20;;;;;;;-142.18;100.00;63825.25;5094915;28;20447;-73
2021/12/06 03:02:16;;;;;;;13.75;8.65;;;;;;;-142.18;100.00;63825.25;5076835;28;20087;-73
2021/12/06 03:04:43;;;;;;;17.58;10.05;;;;;;;-142.18;100.00;63825.25;5094259;28;20066;-73
2021/12/06 03:07:10;;;;;;;19.50;10.75;;;;;;;-142.18;100.00;63825.25;5094117;28;20056;-73
2021/12/06 03:09:40;;;;;;;14.82;9.52;;;;;;;-142.18;100.00;63825.25;5075175;28;20156;-73
2021/12/06 03:12:15;;;;;;;15.43;9.05;;;;;;;-142.18;100.00;63825.25;5075236;28;20534;-73
2021/12/06 03:14:47;;;;;;;12.88;8.52;;;;;;;-142.18;100.00;63825.25;5092979;28;20092;-73
2021/12/06 03:17:19;;;;;;;15.52;7.72;;;;;;;-142.18;100.00;63825.25;5070805;28;20207;-73
2021/12/06 03:19:47;;;;;;;15.10;7.80;;;;;;;-142.18;100.00;63825.25;5073504;28;20103;-73
2021/12/06 03:22:15;;;;;;;14.65;8.23;;;;;;;-142.18;100.00;63825.25;5071765;28;20171;-73
2021/12/06 03:24:42;;;;;;;14.45;7.45;;;;;;;-142.18;100.00;63825.25;5071667;28;20155;-73
2021/12/06 03:27:14;;;;;;;13.13;8.77;;;;;;;-142.18;100.00;63825.25;5073416;28;20127;-73
2021/12/06 03:29:41;;;;;;;13.98;9.20;;;;;;;-142.18;100.00;63825.25;5073245;28;20672;-73
2021/12/06 03:32:08;;;;;;;16.55;9.73;;;;;;;-142.18;100.00;63825.25;5056669;28;20381;-73
2021/12/06 03:34:35;;;;;;;15.27;8.93;;;;;;;-142.18;100.00;63825.25;5073441;28;20053;-73
2021/12/06 03:37:04;;;;;;;15.60;8.73;;;;;;;-142.18;100.00;63825.25;5073575;28;20060;-73
2021/12/06 03:39:44;;;;;;;17.17;9.95;;;;;;;-142.18;100.00;63825.25;5074734;28;20159;-73
2021/12/06 03:42:13;;;;;;;15.15;9.07;;;;;;;-142.18;100.00;63825.25;5074123;28;20439;-73
2021/12/06 03:44:40;;;;;;;15.70;9.13;;;;;;;-142.18;100.00;63825.25;5055827;28;20438;-73
2021/12/06 03:47:11;;;;;;;14.25;8.80;;;;;;;-142.18;100.00;63825.25;5074131;28;20061;-73
2021/12/06 03:49:38;;;;;;;16.55;9.40;;;;;;;-142.18;100.00;63825.25;5055776;28;20112;-73
2021/12/06 03:52:05;;;;;;;14.40;9.35;;;;;;;-142.18;100.00;63825.25;5056660;28;20107;-73
2021/12/06 03:54:32;;;;;;;17.65;9.30;;;;;;;-142.18;100.00;63825.25;5056847;28;20053;-73
2021/12/06 03:56:59;;;;;;;16.13;9.63;;;;;;;-142.18;100.00;63825.25;5074545;28;20060;-73
2021/12/06 03:59:26;;;;;;;16.85;9.48;;;;;;;-142.18;100.00;63825.25;5073552;28;20210;-73
2021/12/06 04:01:53;;;;;;;17.67;8.75;;;;;;;-142.18;100.00;63825.25;5074314;28;20180;-73
2021/12/06 04:04:20;;;;;;;14.50;9.20;;;;;;;-142.18;100.00;63825.25;5074861;28;20049;-73
2021/12/06 04:06:48;;;;;;;16.33;8.98;;;;;;;-142.18;100.00;63825.25;5076459;28;20115;-73
2021/12/06 04:09:15;;;;;;;14.15;9.70;;;;;;;-142.18;100.00;63825.25;5075563;28;20056;-73
2021/12/06 04:11:42;;;;;;;17.20;9.15;;;;;;;-142.18;100.00;63825.25;5059036;28;20500;-73
2021/12/06 04:14:10;;;;;;;14.18;9.13;;;;;;;-142.18;100.00;63825.25;5076097;28;20071;-73
2021/12/06 04:16:38;;;;;;;15.50;9.50;;;;;;;-142.18;100.00;63825.25;5076872;28;20403;-73
2021/12/06 04:19:06;;;;;;;16.13;9.27;;;;;;;-142.18;100.00;63825.25;5075297;28;20068;-73
2021/12/06 04:21:33;;;;;;;16.05;8.82;;;;;;;-142.18;100.00;63825.25;5076676;28;20056;-74
2021/12/06 04:24:00;;;;;;;18.55;9.75;;;;;;;-142.18;100.00;63825.25;5076154;28;20577;-73
2021/12/06 04:26:27;;;;;;;21.13;10.50;;;;;;;-142.18;100.00;63825.25;5076629;28;20084;-73
2021/12/06 04:29:01;;;;;;;20.55;8.90;;;;;;;-142.18;100.00;63825.25;5075789;28;20148;-73
2021/12/06 04:31:33;;;;;;;14.65;8.55;;;;;;;-142.18;100.00;63825.25;5075928;28;20064;-73
2021/12/06 04:34:00;;;;;;;12.82;8.20;;;;;;;-142.18;100.00;63825.25;5057127;28;20162;-73
2021/12/06 04:36:37;;;;;;;18.80;8.63;;;;;;;-142.18;100.00;63825.25;5057856;28;20288;-73
2021/12/06 04:39:07;;;;;;;13.77;8.32;;;;;;;-142.18;100.00;63825.25;5074714;28;20079;-73
2021/12/06 04:41:33;;;;;;;13.35;8.20;;;;;;;-142.18;100.00;63825.25;5074204;28;20164;-73
2021/12/06 04:44:03;;;;;;;15.85;9.43;;;;;;;-142.18;100.00;63825.25;5075277;28;20804;-73
2021/12/06 04:46:33;;;;;;;14.95;8.52;;;;;;;-142.18;100.00;63825.25;5058075;28;20430;-73
2021/12/06 04:49:00;;;;;;;16.13;9.63;;;;;;;-142.18;100.00;63825.25;5077099;28;20057;-73
2021/12/06 04:51:27;;;;;;;13.90;8.63;;;;;;;-142.18;100.00;63825.25;5077946;28;20106;-73
2021/12/06 04:53:54;;;;;;;14.43;9.32;;;;;;;-142.18;100.00;63825.25;5077062;28;20115;-73
2021/12/06 04:56:27;;;;;;;13.38;9.07;;;;;;;-142.18;100.00;63825.25;5077185;28;20135;-73
2021/12/06 04:59:18;;;;;;;19.83;10.27;;;;;;;-142.18;100.00;63825.25;5075400;28;20806;-73
2021/12/06 05:01:46;;;;;;;18.92;10.02;;;;;;;-142.18;100.00;63825.25;5074353;28;20057;-74
2021/12/06 05:04:19;;;;;;;15.98;9.75;;;;;;;-142.18;100.00;63825.25;5057435;28;20352;-73
2021/12/06 05:06:50;;;;;;;17.52;10.15;;;;;;;-142.18;100.00;63825.25;5074804;28;20742;-74
2021/12/06 05:09:25;;;;;;;16.00;10.00;;;;;;;-142.18;100.00;63825.25;5054446;28;20482;-74
2021/12/06 05:11:51;;;;;;;13.02;9.00;;;;;;;-142.18;100.00;63825.25;5074560;28;20061;-74
2021/12/06 05:14:18;;;;;;;15.50;9.80;;;;;;;-142.18;100.00;63825.25;5074210;28;20154;-74
2021/12/06 05:16:45;;;;;;;16.30;9.48;;;;;;;-142.18;100.00;63825.25;5074332;28;20060;-73
2021/12/06 05:19:13;;;;;;;19.02;9.73;;;;;;;-142.18;100.00;63825.25;5059134;28;20074;-74
2021/12/06 05:21:40;;;;;;;24.33;11.63;;;;;;;-142.18;100.00;63825.25;5059033;28;20508;-74
2021/12/06 05:24:07;;;;;;;24.73;15.73;;;;;;;-142.18;100.00;63825.25;5074530;28;20138;-73
2021/12/06 05:26:35;;;;;;;23.10;14.20;;;;;;;-142.18;100.00;63825.25;5075616;28;20064;-73
2021/12/06 05:29:05;;;;;;;27.45;14.55;;;;;;;-142.18;100.00;63825.25;5057067;28;20091;-73
2021/12/06 05:31:35;;;;;;;27.80;15.98;;;;;;;-142.18;100.00;63825.25;5057165;28;20060;-74
2021/12/06 05:34:08;;;;;;;27.00;14.65;;;;;;;-142.18;100.00;63825.25;5071920;28;20061;-74
2021/12/06 05:36:34;;;;;;;25.23;15.23;;;;;;;-142.18;100.00;63825.25;5072358;28;20481;-74
2021/12/06 05:39:06;;;;;;;23.33;14.25;;;;;;;-142.18;100.00;63825.25;5071994;28;20061;-73
2021/12/06 05:41:34;;;;;;;20.35;11.85;;;;;;;-142.18;100.00;63825.25;5056656;28;20389;-74
2021/12/06 05:44:03;;;;;;;94.90;37.17;;;;;;;-142.18;100.00;63825.25;5074845;28;20123;-74
2021/12/06 05:46:31;;;;;;;46.08;20.13;;;;;;;-142.18;100.00;63825.25;5055126;28;20141;-74
2021/12/06 05:48:57;;;;;;;49.58;20.42;;;;;;;-142.18;100.00;63825.25;5073681;28;20057;-73
2021/12/06 05:51:24;;;;;;;34.60;15.80;;;;;;;-142.18;100.00;63825.25;5073367;28;20067;-74
2021/12/06 05:53:51;;;;;;;39.70;18.42;;;;;;;-142.18;100.00;63825.25;5069537;28;21050;-73
2021/12/06 05:56:17;;;;;;;19.45;11.85;;;;;;;-142.18;100.00;63825.25;5095434;28;20060;-74
2021/12/06 05:58:44;;;;;;;20.08;11.27;;;;;;;-142.18;100.00;63825.25;5093366;28;20155;-73
2021/12/06 06:01:10;;;;;;;17.42;10.55;;;;;;;-142.18;100.00;63825.25;5091651;28;20056;-73
2021/12/06 06:03:43;;;;;;;21.90;11.45;;;;;;;-142.18;100.00;63825.25;5091860;28;20064;-73
2021/12/06 06:06:09;;;;;;;22.35;12.02;;;;;;;-142.18;100.00;63825.25;5074703;28;20068;-74
2021/12/06 06:08:36;;;;;;;17.30;10.88;;;;;;;-142.18;100.00;63825.25;5091576;28;20053;-73
2021/12/06 06:11:06;;;;;;;19.30;10.55;;;;;;;-142.18;100.00;63825.25;5090987;28;20451;-66
2021/12/06 06:13:32;;;;;;;19.73;10.80;;;;;;;-142.18;100.00;63825.25;5089942;28;20071;-67
2021/12/06 06:16:02;;;;;;;23.10;11.52;;;;;;;-142.18;100.00;63825.25;5072070;28;20202;-67
2021/12/06 06:18:29;;;;;;;19.50;10.63;;;;;;;-142.18;100.00;63825.25;5090312;28;20395;-67
2021/12/06 06:20:56;;;;;;;19.17;11.38;;;;;;;-142.18;100.00;63825.25;5073954;28;20121;-66
2021/12/06 06:23:24;;;;;;;19.85;11.13;;;;;;;-142.18;100.00;63825.25;5091866;28;20079;-66
2021/12/06 06:25:51;;;;;;;20.38;11.98;;;;;;;-142.18;100.00;63825.25;5091676;28;20056;-66
2021/12/06 06:28:17;;;;;;;18.27;11.02;;;;;;;-142.18;100.00;63825.25;5090403;28;20061;-66
2021/12/06 06:30:44;;;;;;;17.05;10.18;;;;;;;-142.18;100.00;63825.25;5089221;28;20066;-66
2021/12/06 06:33:13;;;;;;;22.20;10.95;;;;;;;-142.18;100.00;63825.25;5091030;28;20474;-66
2021/12/06 06:35:40;;;;;;;22.02;11.88;;;;;;;-142.18;100.00;63825.25;5091196;28;20068;-66
2021/12/06 06:38:08;;;;;;;16.25;10.43;;;;;;;-142.18;100.00;63825.25;5088113;28;20071;-66
2021/12/06 06:40:39;;;;;;;21.30;11.18;;;;;;;-142.18;100.00;63825.25;5070931;28;20057;-66
2021/12/06 06:43:06;;;;;;;21.67;11.80;;;;;;;-142.18;100.00;63825.25;5069712;28;20143;-67
2021/12/06 06:45:35;;;;;;;21.40;11.50;;;;;;;-142.18;100.00;63825.25;5071727;28;20063;-67
2021/12/06 06:48:02;;;;;;;23.92;11.63;;;;;;;-142.18;100.00;63825.25;5070530;28;20061;-66
2021/12/06 06:50:30;;;;;;;20.67;11.40;;;;;;;-142.18;100.00;63825.25;5071168;28;20068;-67
2021/12/06 06:52:58;;;;;;;22.02;11.10;;;;;;;-142.18;100.00;63825.25;5062733;28;20080;-66
2021/12/06 06:55:34;;;;;;;17.85;11.02;;;;;;;-142.18;100.00;63825.25;5091017;28;20059;-66
2021/12/06 06:58:01;;;;;;;22.42;11.82;;;;;;;-142.18;100.00;63825.25;5091931;28;20068;-66
2021/12/06 07:00:37;;;;;;;26.98;13.65;;;;;;;-142.18;100.00;63825.25;5091508;28;20076;-66
2021/12/06 07:03:07;;;;;;;25.52;13.90;;;;;;;-142.18;100.00;63825.25;5091822;28;20060;-66
2021/12/06 07:05:37;;;;;;;25.10;13.00;;;;;;;-142.18;100.00;63825.25;5091663;28;20118;-66
2021/12/06 07:08:08;;;;;;;22.45;12.43;;;;;;;-142.18;100.00;63825.25;5091441;28;20455;-67
2021/12/06 07:10:35;;;;;;;20.10;12.07;;;;;;;-142.18;100.00;63825.25;5074751;28;20061;-73
2021/12/06 07:13:04;;;;;;;25.90;13.50;;;;;;;-142.18;100.00;63825.25;5093278;28;20091;-73
2021/12/06 07:15:34;;;;;;;20.52;11.68;;;;;;;-142.18;100.00;63825.25;5073546;28;20107;-73
2021/12/06 07:18:03;;;;;;;23.70;13.98;;;;;;;-142.18;100.00;63825.25;5073215;28;20122;-73
2021/12/06 07:20:35;;;;;;;21.42;12.30;;;;;;;-142.18;100.00;63825.25;5077674;28;20052;-73
2021/12/06 07:23:03;;;;;;;20.90;11.90;;;;;;;-142.18;100.00;63825.25;5094190;28;20064;-73
2021/12/06 07:25:33;;;;;;;25.58;12.23;;;;;;;-142.18;100.00;63825.25;5079109;28;20151;-73
2021/12/06 07:28:06;;;;;;;28.20;12.73;;;;;;;-142.18;100.00;63825.25;5096274;28;20057;-72
2021/12/06 07:30:35;;;;;;;23.75;12.95;;;;;;;-142.18;100.00;63825.25;5077109;28;20482;-73
2021/12/06 07:33:02;;;;;;;30.85;14.00;;;;;;;-142.18;100.00;63825.25;5094799;28;20087;-74
2021/12/06 07:35:31;;;;;;;30.20;14.15;;;;;;;-142.18;100.00;63825.25;5093103;28;20064;-74
2021/12/06 07:38:03;;;;;;;27.40;14.10;;;;;;;-142.18;100.00;63825.25;5113124;28;20424;-73
2021/12/06 07:40:31;;;;;;;27.55;14.20;;;;;;;-142.18;100.00;63825.25;5102482;27;20106;-73
2021/12/06 07:43:02;;;;;;;24.85;12.65;;;;;;;-142.18;100.00;63825.25;5090546;28;20067;-73
2021/12/06 07:45:30;;;;;;;23.95;13.32;;;;;;;-142.18;100.00;63825.25;5080376;28;20064;-73
2021/12/06 07:47:57;;;;;;;29.75;13.95;;;;;;;-142.18;100.00;63825.25;5077707;28;20107;-74
2021/12/06 07:50:25;;;;;;;27.80;13.73;;;;;;;-142.18;100.00;63825.25;5095471;28;20102;-73
2021/12/06 07:52:53;;;;;;;25.73;13.27;;;;;;;-142.18;100.00;63825.25;5078712;28;20064;-74
2021/12/06 07:55:26;;;;;;;28.98;14.32;;;;;;;-142.18;100.00;63825.25;5081707;28;20112;-73
2021/12/06 07:57:56;;;;;;;29.45;13.45;;;;;;;-142.18;100.00;63825.25;5065483;28;20060;-73
2021/12/06 08:00:25;;;;;;;27.38;13.68;;;;;;;-142.18;100.00;63825.25;5070611;28;20064;-73
2021/12/06 08:02:54;;;;;;;31.02;14.27;;;;;;;-142.18;100.00;63825.25;5096001;28;20072;-74
2021/12/06 08:05:33;;;;;;;27.83;13.32;;;;;;;-142.18;100.00;63825.25;5079260;28;20067;-73
2021/12/06 08:08:09;;;;;;;26.35;13.30;;;;;;;-142.18;100.00;63825.25;5093775;28;20426;-73
2021/12/06 08:10:40;;;;;;;26.33;14.30;;;;;;;-142.18;100.00;63825.25;5077393;28;20405;-72
2021/12/06 08:13:10;;;;;;;;;;;;;;;-142.18;100.00;63825.25;5078025;28;20480;-73
2021/12/06 08:15:38;;;;;;;25.42;12.60;;;;;;;-142.18;100.00;63825.25;5101370;28;19942;-74
2021/12/06 08:18:07;;;;;;;30.33;14.63;;;;;;;-142.18;100.00;63825.25;5078852;28;20488;-73
2021/12/06 08:20:37;;;;;;;30.83;13.77;;;;;;;-142.18;100.00;63825.25;5078458;28;20065;-73
2021/12/06 08:23:05;;;;;;;29.52;14.35;;;;;;;-142.18;100.00;63825.25;5077582;28;20048;-74
2021/12/06 08:25:48;;;;;;;26.23;13.82;;;;;;;-142.18;100.00;63825.25;5077930;28;20110;-73
2021/12/06 08:28:18;;;;;;;32.75;16.35;;;;;;;-142.18;100.00;63825.25;5094953;28;20040;-73
2021/12/06 08:30:47;;;;;;;30.48;16.60;;;;;;;-142.18;100.00;63825.25;5096021;28;20057;-74
2021/12/06 08:33:25;;;;;;;35.90;17.08;;;;;;;-142.18;100.00;63825.25;5077553;28;20056;-74
2021/12/06 08:35:57;;;;;;;34.35;17.75;;;;;;;-142.18;100.00;63825.25;5095183;28;20064;-74
2021/12/06 08:38:29;;;;;;;39.38;16.77;;;;;;;-142.18;100.00;63825.25;5076999;28;20068;-74
2021/12/06 08:40:58;;;;;;;26.25;15.27;;;;;;;-142.18;100.00;63825.25;5093274;28;20421;-73
2021/12/06 08:43:29;;;;;;;32.10;15.45;;;;;;;-142.18;100.00;63825.25;5111914;28;20117;-74
2021/12/06 08:46:06;;;;;;;26.27;15.07;;;;;;;-142.18;100.00;63825.25;5095009;28;20061;-73
2021/12/06 08:48:37;;;;;;;29.27;14.80;;;;;;;-142.18;100.00;63825.25;5077731;28;20057;-74
2021/12/06 08:51:19;;;;;;;35.08;17.15;;;;;;;-142.18;100.00;63825.25;5040654;28;20061;-74
2021/12/06 08:53:51;;;;;;;69.03;33.35;;;;;;;-142.18;100.00;63825.25;5053248;28;20065;-74
2021/12/06 08:56:23;;;;;;;118.63;52.92;;;;;;;-142.18;100.00;63825.25;5066587;28;20139;-74
2021/12/06 08:58:57;;;;;;;63.10;29.65;;;;;;;-142.18;100.00;63825.25;5095632;28;20762;-72
2021/12/06 09:01:30;;;;;;;37.47;19.00;;;;;;;-142.18;100.00;63825.25;5113477;28;20140;-73
2021/12/06 09:04:33;;;;;;;47.10;18.92;;;;;;;-142.18;100.00;63825.25;5096737;28;20167;-73
2021/12/06 09:07:11;;;;;;;35.38;17.05;;;;;;;-142.18;100.00;63825.25;5090174;28;20094;-74
2021/12/06 09:09:46;;;;;;;33.40;18.38;;;;;;;-142.18;100.00;63825.25;5074995;28;20067;-74
2021/12/06 09:12:25;;;;;;;38.40;19.27;;;;;;;-142.18;100.00;63825.25;5091050;28;20067;-73
2021/12/06 09:15:00;;;;;;;39.38;19.70;;;;;;;-142.18;100.00;63825.25;5090463;28;20087;-74
2021/12/06 09:17:28;;;;;;;42.38;19.92;;;;;;;-142.18;100.00;63825.25;5091879;28;20137;-74
2021/12/06 09:19:56;;;;;;;46.33;22.35;;;;;;;-142.18;100.00;63825.25;5091997;28;20148;-74
2021/12/06 09:22:25;;;;;;;54.72;23.38;;;;;;;-142.18;100.00;63825.25;5093432;28;20132;-74
2021/12/06 09:24:54;;;;;;;49.10;21.50;;;;;;;-142.18;100.00;63825.25;5093438;28;20121;-73
2021/12/06 09:27:27;;;;;;;88.60;39.65;;;;;;;-142.18;100.00;63825.25;5076007;28;20489;-74
2021/12/06 09:29:57;;;;;;;42.72;19.63;;;;;;;-142.18;100.00;63825.25;5065629;28;20080;-75
2021/12/06 09:32:29;;;;;;;47.55;21.00;;;;;;;-142.18;100.00;63825.25;5096877;28;20059;-74
2021/12/06 09:35:14;;;;;;;45.17;20.23;;;;;;;-142.18;100.00;63825.25;5085319;28;20914;-75
2021/12/06 09:38:15;;;;;;;48.72;21.27;;;;;;;-142.18;100.00;63825.25;5098006;28;20721;-75
2021/12/06 09:40:44;;;;;;;;;;;;;;;-142.18;100.00;63825.25;5095140;28;20056;-75
2021/12/06 09:43:14;;;;;;;50.17;21.17;;;;;;;-142.18;100.00;63825.25;5071020;28;20287;-75
2021/12/06 09:45:46;;;;;;;49.87;22.67;;;;;;;-142.18;100.00;63825.25;5072918;28;20447;-75
2021/12/06 09:48:16;;;;;;;46.85;20.92;;;;;;;-142.18;100.00;63825.25;5091525;28;20147;-75
2021/12/06 09:50:54;;;;;;;45.72;20.38;;;;;;;-142.18;100.00;63825.25;5071024;28;20159;-75
2021/12/06 09:53:24;;;;;;;44.78;19.88;;;;;;;-142.18;100.00;63825.25;5041158;28;20151;-75
2021/12/06 09:55:55;;;;;;;45.03;19.83;;;;;;;-142.18;100.00;63825.25;5058554;28;20114;-74
2021/12/06 09:58:30;;;;;;;74.35;30.17;;;;;;;-142.18;100.00;63825.25;5091674;28;20088;-75
2021/12/06 10:01:41;;;;;;;45.50;20.38;;;;;;;-142.18;100.00;63825.25;5082568;28;20052;-74
2021/12/06 10:04:34;;;;;;;47.08;21.73;;;;;;;-142.18;100.00;63825.25;5088131;28;20417;-75
2021/12/06 10:07:06;;;;;;;48.47;21.55;;;;;;;-142.18;100.00;63825.25;5090855;28;20067;-75
2021/12/06 10:09:33;;;;;;;44.40;19.48;;;;;;;-142.18;100.00;63825.25;5082326;28;20126;-74
2021/12/06 10:12:07;;;;;;;38.83;19.52;;;;;;;-142.18;100.00;63825.25;5056132;28;20056;-74
2021/12/06 10:14:38;;;;;;;44.63;21.38;;;;;;;-142.18;100.00;63825.25;5052302;28;20084;-74
2021/12/06 10:17:15;;;;;;;40.35;20.77;;;;;;;-142.18;100.00;63825.25;5070437;28;20136;-74
2021/12/06 10:20:07;;;;;;;45.35;21.27;;;;;;;-142.18;100.00;63825.25;5062779;28;20061;-74
2021/12/06 10:22:54;;;;;;;46.78;20.73;;;;;;;-142.18;100.00;63825.25;5048609;28;20053;-75
2021/12/06 10:25:38;;;;;;;42.72;20.90;;;;;;;-142.18;100.00;63825.25;5071450;28;20049;-73
2021/12/06 10:28:14;;;;;;;53.10;25.92;;;;;;;-142.18;100.00;63825.25;5069504;28;20073;-74
2021/12/06 10:30:49;;;;;;;53.13;24.42;;;;;;;-142.18;100.00;63825.25;5069658;28;20057;-75
2021/12/06 10:33:29;;;;;;;46.25;21.88;;;;;;;-142.18;100.00;63825.25;5071435;28;20065;-74
2021/12/06 10:36:07;;;;;;;;;;;;;;;-142.18;100.00;63825.25;5056334;28;20060;-74
2021/12/06 10:38:42;;;;;;;40.28;19.35;;;;;;;-142.18;100.00;63825.25;5055416;28;19939;-74
2021/12/06 10:41:15;;;;;;;40.50;20.02;;;;;;;-142.18;100.00;63825.25;5071345;28;20451;-74
2021/12/06 10:44:04;;;;;;;39.92;19.13;;;;;;;-142.18;100.00;63825.25;5071605;28;20142;-75
2021/12/06 10:46:33;;;;;;;47.83;21.30;;;;;;;-142.18;100.00;63825.25;5054484;28;20141;-74
2021/12/06 10:49:05;;;;;;;38.60;18.23;;;;;;;-142.18;100.00;63825.25;5070878;28;20498;-75
2021/12/06 10:51:34;;;;;;;;;;;;;;;-142.18;100.00;63825.25;5053667;28;20328;-74
2021/12/06 10:54:17;;;;;;;37.53;18.70;;;;;;;-142.18;100.00;63825.25;5067823;28;19968;-74
2021/12/06 10:56:48;;;;;;;39.33;18.73;;;;;;;-142.18;100.00;63825.25;5053375;28;20144;-74
2021/12/06 10:59:27;;;;;;;37.33;17.35;;;;;;;-142.18;100.00;63825.25;5052786;28;20148;-74
2021/12/06 11:02:04;;;;;;;40.67;18.77;;;;;;;-142.18;100.00;63825.25;5062797;28;20127;-74
2021/12/06 11:04:33;;;;;;;38.55;18.27;;;;;;;-142.18;100.00;63825.25;5059978;28;20060;-74
2021/12/06 11:07:05;;;;;;;40.30;18.15;;;;;;;-142.18;100.00;63825.25;5053197;28;20060;-74
2021/12/06 11:09:36;;;;;;;41.17;19.55;;;;;;;-142.18;100.00;63825.25;5062874;28;20083;-74
2021/12/06 11:12:05;;;;;;;37.47;18.35;;;;;;;-142.18;100.00;63825.25;5071319;28;20053;-74
2021/12/06 11:14:40;;;;;;;40.20;18.42;;;;;;;-142.18;100.00;63825.25;5040021;28;20441;-74
2021/12/06 11:17:16;;;;;;;33.63;18.30;;;;;;;-142.18;100.00;63825.25;5057044;28;20199;-75
2021/12/06 11:19:49;;;;;;;39.05;18.50;;;;;;;-142.18;100.00;63825.25;5061092;28;20148;-74
2021/12/06 11:22:38;;;;;;;35.13;17.80;;;;;;;-142.18;100.00;63825.25;5055835;28;20840;-77
2021/12/06 11:25:11;;;;;;;40.90;19.58;;;;;;;-142.18;100.00;63825.25;5059443;28;20057;-74
2021/12/06 11:27:44;;;;;;;35.10;18.02;;;;;;;-142.18;100.00;63825.25;5056025;28;20792;-74